ADDS METAR Data INFO
IDs: Format: Raw Decoded Include TAF

Data at: 1851 UTC 16 Dec 2017

KMKY 161756Z AUTO 04005KT 10SM CLR 25/14 A3018 RMK AO2 SLP220 T02500139 10256 20117 58020
KMKY 161656Z AUTO 07009KT 10SM CLR 24/14 A3021 RMK AO2 SLP230 T02440139
KMKY 161556Z AUTO 04005KT 10SM CLR 23/16 A3023 RMK AO2 SLP237 T02330161
KMKY 161456Z AUTO 05007KT 10SM CLR 20/17 A3024 RMK AO2 SLP240 T02000167 51019
KMKY 161356Z AUTO 07003KT 10SM CLR 17/15 A3023 RMK AO2 SLP237 T01670150
KMKY 161256Z AUTO 08003KT 10SM CLR 13/12 A3020 RMK AO2 SLP228 T01280122
KMKY 161156Z AUTO 08003KT 10SM CLR 12/12 A3019 RMK AO2 SLP221 T01220117 10150 20122 53008
KMKY 161056Z AUTO 07004KT 10SM CLR 13/12 A3016 RMK AO2 SLP213 T01280117
KMKY 160956Z AUTO 05003KT 10SM CLR 13/12 A3015 RMK AO2 SLP211 T01330122
KMKY 160856Z AUTO 02003KT 10SM CLR 14/13 A3016 RMK AO2 SLP214 T01390128 57008
KMKY 160756Z AUTO 09003KT 10SM CLR 14/13 A3017 RMK AO2 SLP215 T01390128
KMKY 160656Z AUTO 00000KT 10SM CLR 14/13 A3018 RMK AO2 SLP220 T01440133
KMKY 160556Z AUTO 00000KT 10SM CLR 15/14 A3019 RMK AO2 SLP221 T01500139 10194 20144 50004
KMKY 160456Z AUTO 36003KT 10SM FEW060 16/15 A3019 RMK AO2 SLP222 T01610150 402500106
KMKY 160356Z AUTO 12003KT 10SM CLR 16/14 A3018 RMK AO2 SLP220 T01560144
KMKY 160256Z AUTO 00000KT 10SM CLR 17/16 A3017 RMK AO2 SLP218 T01670156 51015
KMKY 160156Z AUTO 00000KT 10SM CLR 17/15 A3016 RMK AO2 SLP214 T01670150
KMKY 160056Z AUTO 00000KT 10SM CLR 17/16 A3015 RMK AO2 SLP209 T01720156
KMKY 152356Z AUTO 00000KT 10SM CLR 19/16 A3013 RMK AO2 SLP203 T01890161 10250 20189 53014
KMKY 152256Z AUTO 26004KT 10SM CLR 21/14 A3011 RMK AO2 SLP197 T02060144
KMKY 152156Z AUTO 23003KT 10SM CLR 23/14 A3010 RMK AO2 SLP194 T02330139
KMKY 152056Z AUTO 21004KT 10SM FEW044 24/13 A3009 RMK AO2 SLP189 T02390133 55001
KMKY 151956Z AUTO 24007KT 10SM CLR 24/13 A3008 RMK AO2 SLP186 T02440133
KMKY 151856Z AUTO 26006KT 10SM CLR 24/13 A3008 RMK AO2 SLP185 T02440128
KMKY 151756Z AUTO 20005KT 10SM CLR 24/13 A3009 RMK AO2 SLP190 T02440133 10244 20106 58014
KMKY 151656Z AUTO 20005KT 10SM CLR 24/13 A3012 RMK AO2 SLP200 T02390133
KMKY 151556Z AUTO 18003KT 10SM CLR 23/14 A3014 RMK AO2 SLP204 T02280139
KMKY 151456Z AUTO 14004KT 10SM CLR 20/15 A3013 RMK AO2 SLP204 T02000150 51014
KMKY 151356Z AUTO 14003KT 10SM CLR 17/15 A3013 RMK AO2 SLP202 T01670150
KMKY 151256Z AUTO 10003KT 10SM CLR 12/12 A3011 RMK AO2 SLP196 T01220117
KMKY 151156Z AUTO 11005KT 10SM CLR 11/10 A3009 RMK AO2 SLP190 T01060100 10128 20106 53004
KMKY 151056Z AUTO 10006KT 10SM CLR 11/10 A3009 RMK AO2 SLP188 T01060100
KMKY 150956Z AUTO 08003KT 10SM CLR 11/11 A3008 RMK AO2 SLP186 T01110106
KMKY 150856Z AUTO 09004KT 10SM CLR 12/11 A3008 RMK AO2 SLP186 T01170106 56004
KMKY 150756Z AUTO 08004KT 10SM CLR 12/11 A3009 RMK AO2 SLP187 T01170111
KMKY 150656Z AUTO 08004KT 10SM CLR 13/12 A3009 RMK AO2 SLP187 T01280117